createdAt,value
2023-05-08T00:00:06.679Z,11.85
2023-05-08T00:02:34.425Z,11.76
2023-05-08T00:05:02.257Z,11.82
2023-05-08T00:07:30.269Z,12.16
2023-05-08T00:09:57.957Z,11.97
2023-05-08T00:12:25.673Z,11.95
2023-05-08T00:14:53.364Z,12.03
2023-05-08T00:17:21.111Z,11.89
2023-05-08T00:19:48.910Z,12.08
2023-05-08T00:22:16.695Z,12.05
2023-05-08T00:24:44.381Z,11.79
2023-05-08T00:27:12.607Z,11.81
2023-05-08T00:29:40.393Z,11.21
2023-05-08T00:32:08.271Z,11.57
2023-05-08T00:34:36.354Z,11.33
2023-05-08T00:37:04.146Z,11.29
2023-05-08T00:39:32.061Z,11.49
2023-05-08T00:42:00.201Z,11.79
2023-05-08T00:44:28.201Z,11.68
2023-05-08T00:46:55.906Z,11.54
2023-05-08T00:49:23.777Z,11.74
2023-05-08T00:51:52.808Z,11.70
2023-05-08T00:54:20.657Z,11.63
2023-05-08T00:56:50.525Z,11.62
2023-05-08T00:59:18.246Z,11.74
2023-05-08T01:01:47.740Z,11.51
2023-05-08T01:04:16.110Z,11.72
2023-05-08T01:06:43.872Z,11.60
2023-05-08T01:09:11.847Z,11.37
2023-05-08T01:11:51.431Z,11.23
2023-05-08T01:14:22.643Z,11.46
2023-05-08T01:17:11.863Z,11.42
2023-05-08T01:19:43.096Z,11.31
2023-05-08T01:22:32.690Z,10.74
2023-05-08T01:25:21.632Z,10.79
2023-05-08T01:27:52.394Z,11.09
2023-05-08T01:30:46.278Z,10.59
2023-05-08T01:33:18.706Z,10.88
2023-05-08T01:35:58.939Z,10.97
2023-05-08T01:38:34.107Z,11.13
2023-05-08T01:41:14.430Z,11.09
2023-05-08T01:43:54.238Z,11.27
2023-05-08T01:46:27.231Z,11.24
2023-05-08T01:49:09.404Z,10.96
2023-05-08T01:51:45.023Z,10.94
2023-05-08T01:54:16.028Z,11.00
2023-05-08T01:56:44.765Z,11.23
2023-05-08T01:59:14.114Z,11.28
2023-05-08T02:01:44.671Z,10.80
2023-05-08T02:04:12.713Z,10.97
2023-05-08T02:06:40.492Z,10.87
2023-05-08T02:09:08.636Z,11.08
2023-05-08T02:11:40.024Z,10.74
2023-05-08T02:14:08.589Z,10.73
2023-05-08T02:16:36.346Z,10.87
2023-05-08T02:19:04.096Z,10.69
2023-05-08T02:21:31.814Z,10.80
2023-05-08T02:23:59.519Z,10.93
2023-05-08T02:26:27.318Z,10.83
2023-05-08T02:28:55.682Z,10.79
2023-05-08T02:31:23.478Z,10.78
2023-05-08T02:33:51.404Z,10.73
2023-05-08T02:36:19.613Z,10.89
2023-05-08T02:38:49.113Z,10.94
2023-05-08T02:41:17.656Z,10.98
2023-05-08T02:43:45.836Z,11.09
2023-05-08T02:46:21.310Z,11.05
2023-05-08T02:49:01.509Z,11.04
2023-05-08T02:51:31.058Z,11.23
2023-05-08T02:53:59.780Z,10.99
2023-05-08T02:56:32.980Z,11.05
2023-05-08T02:59:27.289Z,10.98
2023-05-08T03:02:09.683Z,10.84
2023-05-08T03:04:48.720Z,10.88
2023-05-08T03:07:16.545Z,10.60
2023-05-08T03:09:45.769Z,10.93
2023-05-08T03:12:22.299Z,10.79
2023-05-08T03:14:57.328Z,10.86
2023-05-08T03:17:25.176Z,10.66
2023-05-08T03:19:55.156Z,10.60
2023-05-08T03:22:22.877Z,10.69
2023-05-08T03:24:51.410Z,10.73
2023-05-08T03:27:20.450Z,10.81
2023-05-08T03:29:48.243Z,10.83
2023-05-08T03:32:16.656Z,10.78
2023-05-08T03:34:44.462Z,10.68
2023-05-08T03:37:12.347Z,10.69
2023-05-08T03:39:40.079Z,10.47
2023-05-08T03:42:07.853Z,10.63
2023-05-08T03:44:35.560Z,10.56
2023-05-08T03:47:03.550Z,10.72
2023-05-08T03:49:31.916Z,10.71
2023-05-08T03:51:59.747Z,10.90
2023-05-08T03:54:28.649Z,10.92
2023-05-08T03:56:56.954Z,10.88
2023-05-08T03:59:30.303Z,10.92
2023-05-08T04:02:10.264Z,10.99
2023-05-08T04:04:41.960Z,10.92
2023-05-08T04:07:42.941Z,11.04
2023-05-08T04:10:16.395Z,10.88
2023-05-08T04:13:17.074Z,10.68
2023-05-08T04:15:52.496Z,11.14
2023-05-08T04:18:44.075Z,11.26
2023-05-08T04:21:11.887Z,11.52
2023-05-08T04:23:40.408Z,11.66
2023-05-08T04:26:08.714Z,11.60
2023-05-08T04:28:36.718Z,11.77
2023-05-08T04:31:05.015Z,11.71
2023-05-08T04:33:34.844Z,11.87
2023-05-08T04:36:03.529Z,11.95
2023-05-08T04:38:36.497Z,12.22
2023-05-08T04:41:05.870Z,12.18
2023-05-08T04:43:34.442Z,12.33
2023-05-08T04:46:02.730Z,12.46
2023-05-08T04:48:33.156Z,12.65
2023-05-08T04:51:01.149Z,12.81
2023-05-08T04:53:29.097Z,13.11
2023-05-08T04:55:57.888Z,13.23
2023-05-08T04:58:25.795Z,13.36
2023-05-08T05:00:54.202Z,13.51
2023-05-08T05:03:22.822Z,13.69
2023-05-08T05:05:57.707Z,13.69
2023-05-08T05:08:25.786Z,13.88
2023-05-08T05:10:54.573Z,13.72
2023-05-08T05:13:22.427Z,13.89
2023-05-08T05:15:54.438Z,13.99
2023-05-08T05:18:23.674Z,13.96
2023-05-08T05:20:53.296Z,14.35
2023-05-08T05:23:21.532Z,14.57
2023-05-08T05:25:49.314Z,14.73
2023-05-08T05:28:17.341Z,14.77
2023-05-08T05:30:47.847Z,14.78
2023-05-08T05:33:16.598Z,14.87
2023-05-08T05:35:45.094Z,14.94
2023-05-08T05:38:13.199Z,15.13
2023-05-08T05:40:41.263Z,15.22
2023-05-08T05:43:09.198Z,15.28
2023-05-08T05:45:37.099Z,15.55
2023-05-08T05:48:05.743Z,15.72
2023-05-08T05:50:34.355Z,15.85
2023-05-08T05:53:02.237Z,15.87
2023-05-08T05:55:30.166Z,15.92
2023-05-08T05:57:59.277Z,15.72
2023-05-08T06:00:27.668Z,15.50
2023-05-08T06:02:57.663Z,15.68
2023-05-08T06:05:25.646Z,15.71
2023-05-08T06:07:53.430Z,15.95
2023-05-08T06:10:21.215Z,16.07
2023-05-08T06:12:49.007Z,16.37
2023-05-08T06:15:17.120Z,16.26
2023-05-08T06:17:46.878Z,16.45
2023-05-08T06:20:14.700Z,16.56
2023-05-08T06:22:42.575Z,16.69
2023-05-08T06:25:11.004Z,16.85
2023-05-08T06:27:38.970Z,16.78
2023-05-08T06:30:10.622Z,16.97
2023-05-08T06:32:38.561Z,17.27
2023-05-08T06:35:06.906Z,17.42
2023-05-08T06:37:34.724Z,17.65
2023-05-08T06:40:14.253Z,17.60
2023-05-08T06:42:42.125Z,17.81
2023-05-08T06:45:10.074Z,18.02
2023-05-08T06:47:38.164Z,18.15
2023-05-08T06:50:06.763Z,17.66
2023-05-08T06:52:34.607Z,17.96
2023-05-08T06:55:02.343Z,18.41
2023-05-08T06:57:30.483Z,18.69
2023-05-08T06:59:59.585Z,18.34
2023-05-08T07:02:27.412Z,18.50
2023-05-08T07:04:55.201Z,19.02
2023-05-08T07:07:23.028Z,19.32
2023-05-08T07:09:50.780Z,19.37
2023-05-08T07:12:18.851Z,19.60
2023-05-08T07:14:46.550Z,19.74
2023-05-08T07:17:14.312Z,20.07
2023-05-08T07:19:42.047Z,19.41
2023-05-08T07:22:09.979Z,19.72
2023-05-08T07:24:37.746Z,19.85
2023-05-08T07:27:05.524Z,20.10
2023-05-08T07:29:33.273Z,19.60
2023-05-08T07:32:01.214Z,20.24
2023-05-08T07:34:29.216Z,20.30
2023-05-08T07:36:56.922Z,20.31
2023-05-08T07:39:24.724Z,20.21
2023-05-08T07:41:52.510Z,20.21
2023-05-08T07:44:20.312Z,20.36
2023-05-08T07:46:48.048Z,20.38
2023-05-08T07:49:15.835Z,20.49
2023-05-08T07:51:43.549Z,20.48
2023-05-08T07:54:11.310Z,20.93
2023-05-08T07:56:38.993Z,21.38
2023-05-08T07:59:06.789Z,21.03
2023-05-08T08:01:34.544Z,20.77
2023-05-08T08:04:02.448Z,21.04
2023-05-08T08:06:30.553Z,21.80
2023-05-08T08:08:58.360Z,21.76
2023-05-08T08:11:26.051Z,22.07
2023-05-08T08:13:53.817Z,21.33
2023-05-08T08:16:21.716Z,21.92
2023-05-08T08:18:49.567Z,22.60
2023-05-08T08:21:17.341Z,22.68
2023-05-08T08:23:45.131Z,22.23
2023-05-08T08:26:12.847Z,22.47
2023-05-08T08:28:40.721Z,22.87
2023-05-08T08:31:08.443Z,22.85
2023-05-08T08:33:36.437Z,21.94
2023-05-08T08:36:04.250Z,22.19
2023-05-08T08:38:32.226Z,22.17
2023-05-08T08:40:59.919Z,23.08
2023-05-08T08:43:28.598Z,22.51
2023-05-08T08:45:56.366Z,22.76
2023-05-08T08:48:24.169Z,22.13
2023-05-08T08:50:51.945Z,23.24
2023-05-08T08:53:27.278Z,23.40
2023-05-08T08:55:57.025Z,23.45
2023-05-08T08:58:43.808Z,23.42
2023-05-08T09:01:15.148Z,23.04
2023-05-08T09:03:43.068Z,23.49
2023-05-08T09:06:10.894Z,23.20
2023-05-08T09:08:38.670Z,22.76
2023-05-08T09:11:06.678Z,23.24
2023-05-08T09:13:34.517Z,23.52
2023-05-08T09:16:02.316Z,23.46
2023-05-08T09:18:30.138Z,23.93
2023-05-08T09:20:58.331Z,22.85
2023-05-08T09:23:26.369Z,23.40
2023-05-08T09:25:54.060Z,23.05
2023-05-08T09:28:23.065Z,22.97
2023-05-08T09:30:54.906Z,22.46
2023-05-08T09:33:26.949Z,22.12
2023-05-08T09:35:57.757Z,22.15
2023-05-08T09:38:32.461Z,21.50
2023-05-08T09:41:12.603Z,20.48
2023-05-08T09:43:40.714Z,19.98
2023-05-08T09:46:22.552Z,19.71
2023-05-08T09:48:51.022Z,20.02
2023-05-08T09:51:18.939Z,20.19
2023-05-08T09:53:46.695Z,20.32
2023-05-08T09:56:14.524Z,20.08
2023-05-08T09:58:43.223Z,20.48
2023-05-08T10:01:29.811Z,20.21
2023-05-08T10:03:57.751Z,19.68
2023-05-08T10:06:25.698Z,19.98
2023-05-08T10:09:13.310Z,19.73
2023-05-08T10:11:42.521Z,19.66
2023-05-08T10:14:10.302Z,19.85
2023-05-08T10:16:41.916Z,19.58
2023-05-08T10:19:13.533Z,20.00
2023-05-08T10:21:44.133Z,20.22
2023-05-08T10:24:19.685Z,19.82
2023-05-08T10:27:20.676Z,20.21
2023-05-08T10:29:55.021Z,20.25
2023-05-08T10:32:24.287Z,19.81
2023-05-08T10:35:01.642Z,19.00
2023-05-08T10:37:29.818Z,19.86
2023-05-08T10:40:00.666Z,19.62
2023-05-08T10:42:28.504Z,20.18
2023-05-08T10:44:56.295Z,19.07
2023-05-08T10:47:48.934Z,18.99
2023-05-08T10:50:23.424Z,19.46
2023-05-08T10:52:59.866Z,19.04
2023-05-08T10:55:32.295Z,18.76
2023-05-08T10:58:11.508Z,18.84
2023-05-08T11:00:59.569Z,18.66
2023-05-08T11:03:32.095Z,19.64
2023-05-08T11:06:01.431Z,20.05
2023-05-08T11:08:30.768Z,19.40
2023-05-08T11:11:01.892Z,20.01
2023-05-08T11:13:34.801Z,20.11
2023-05-08T11:16:02.737Z,19.78
2023-05-08T11:18:45.616Z,19.49
2023-05-08T11:21:21.801Z,19.64
2023-05-08T11:23:56.804Z,19.39
2023-05-08T11:26:39.272Z,19.32
2023-05-08T11:29:16.534Z,19.62
2023-05-08T11:31:50.927Z,19.83
2023-05-08T11:34:43.568Z,19.77
2023-05-08T11:37:12.301Z,19.50
2023-05-08T11:39:39.979Z,19.80
2023-05-08T11:42:27.047Z,19.20
2023-05-08T11:45:10.596Z,19.51
2023-05-08T11:47:42.618Z,19.01
2023-05-08T11:50:11.566Z,19.21
2023-05-08T11:52:40.589Z,18.95
2023-05-08T11:55:10.174Z,18.77
2023-05-08T11:57:38.164Z,19.22
2023-05-08T12:00:09.977Z,19.75
2023-05-08T12:02:42.571Z,19.27
2023-05-08T12:05:11.242Z,19.06
2023-05-08T12:07:46.773Z,18.87
2023-05-08T12:10:15.912Z,18.43
2023-05-08T12:12:44.462Z,18.33
2023-05-08T12:15:13.698Z,18.42
2023-05-08T12:17:42.086Z,18.27
2023-05-08T12:20:17.133Z,17.71
2023-05-08T12:22:52.246Z,18.33
2023-05-08T12:25:20.065Z,17.98
2023-05-08T12:27:47.794Z,17.83
2023-05-08T12:30:16.149Z,17.50
2023-05-08T12:32:44.540Z,17.75
2023-05-08T12:35:12.694Z,17.45
2023-05-08T12:37:40.566Z,17.42
2023-05-08T12:40:08.876Z,17.42
2023-05-08T12:42:46.782Z,17.04
2023-05-08T12:45:21.497Z,16.57
2023-05-08T12:47:49.719Z,16.07
2023-05-08T12:50:18.223Z,15.93
2023-05-08T12:52:46.021Z,16.63
2023-05-08T12:55:34.441Z,16.57
2023-05-08T12:58:11.968Z,16.19
2023-05-08T13:00:46.251Z,16.51
2023-05-08T13:03:29.850Z,16.53
2023-05-08T13:05:58.639Z,15.78
2023-05-08T13:08:30.915Z,15.47
2023-05-08T13:10:58.673Z,16.26
2023-05-08T13:13:28.324Z,16.22
2023-05-08T13:15:56.248Z,16.75
2023-05-08T13:18:25.860Z,16.84
2023-05-08T13:20:56.468Z,17.10
2023-05-08T13:23:24.220Z,17.18
2023-05-08T13:25:51.913Z,17.09
2023-05-08T13:28:19.662Z,17.24
2023-05-08T13:30:47.347Z,17.12
2023-05-08T13:33:15.118Z,17.42
2023-05-08T13:35:42.812Z,16.54
2023-05-08T13:38:10.561Z,16.81
2023-05-08T13:40:38.318Z,17.24
2023-05-08T13:43:06.056Z,17.27
2023-05-08T13:45:33.843Z,17.21
2023-05-08T13:48:01.692Z,17.12
2023-05-08T13:50:29.450Z,17.29
2023-05-08T13:52:57.220Z,17.33
2023-05-08T13:55:24.942Z,17.22
2023-05-08T13:57:52.663Z,17.15
2023-05-08T14:00:20.469Z,17.24
2023-05-08T14:02:50.709Z,17.07
2023-05-08T14:05:20.180Z,17.22
2023-05-08T14:07:48.339Z,17.21
2023-05-08T14:10:17.241Z,16.83
2023-05-08T14:12:45.765Z,16.84
2023-05-08T14:15:13.708Z,16.86
2023-05-08T14:17:42.420Z,16.88
2023-05-08T14:20:12.063Z,17.04
2023-05-08T14:22:40.257Z,16.79
2023-05-08T14:25:08.790Z,16.60
2023-05-08T14:27:36.617Z,16.86
2023-05-08T14:30:04.903Z,16.91
2023-05-08T14:32:32.781Z,16.77
2023-05-08T14:35:00.604Z,16.65
2023-05-08T14:37:28.276Z,16.58
2023-05-08T14:39:57.750Z,16.64
2023-05-08T14:42:25.411Z,16.62
2023-05-08T14:44:53.207Z,16.69
2023-05-08T14:47:20.981Z,16.74
2023-05-08T14:49:48.798Z,16.80
2023-05-08T14:52:16.616Z,16.87
2023-05-08T14:54:44.563Z,16.73
2023-05-08T14:57:12.423Z,16.79
2023-05-08T15:02:28.003Z,16.58
2023-05-08T15:04:55.804Z,16.17
2023-05-08T15:07:23.534Z,16.37
2023-05-08T15:09:51.301Z,16.41
2023-05-08T15:12:19.043Z,16.70
2023-05-08T15:14:46.947Z,16.55
2023-05-08T15:17:14.620Z,16.46
2023-05-08T15:19:42.651Z,16.41
2023-05-08T15:22:10.373Z,16.47
2023-05-08T15:24:38.125Z,16.42
2023-05-08T15:27:05.990Z,16.47
2023-05-08T15:29:33.762Z,16.25
2023-05-08T15:32:01.556Z,16.41
2023-05-08T15:34:32.642Z,16.30
2023-05-08T15:37:00.834Z,16.36
2023-05-08T15:39:28.549Z,16.44
2023-05-08T15:41:56.261Z,16.42
2023-05-08T15:44:26.577Z,16.21
2023-05-08T15:46:56.611Z,15.77
2023-05-08T15:49:25.984Z,16.07
2023-05-08T15:51:53.759Z,16.02
2023-05-08T15:54:21.791Z,16.11
2023-05-08T15:56:49.458Z,16.08
2023-05-08T15:59:17.254Z,15.94
2023-05-08T16:01:46.909Z,16.02
2023-05-08T16:04:14.937Z,15.47
2023-05-08T16:06:42.696Z,15.83
2023-05-08T16:09:10.419Z,15.88
2023-05-08T16:11:38.188Z,15.89
2023-05-08T16:14:06.025Z,14.75
2023-05-08T16:16:33.869Z,15.45
2023-05-08T16:19:01.635Z,15.38
2023-05-08T16:21:29.396Z,15.17
2023-05-08T16:23:57.847Z,15.28
2023-05-08T16:26:26.355Z,15.32
2023-05-08T16:28:54.061Z,15.45
2023-05-08T16:31:21.866Z,14.93
2023-05-08T16:33:49.589Z,15.32
2023-05-08T16:36:17.287Z,15.19
2023-05-08T16:38:45.000Z,15.15
2023-05-08T16:41:13.419Z,14.95
2023-05-08T16:43:41.131Z,14.83
2023-05-08T16:46:08.979Z,14.59
2023-05-08T16:48:36.688Z,14.67
2023-05-08T16:51:04.426Z,14.39
2023-05-08T16:53:32.702Z,14.76
2023-05-08T16:56:01.736Z,14.93
2023-05-08T16:58:29.446Z,14.76
2023-05-08T17:00:57.248Z,14.61
2023-05-08T17:03:25.061Z,14.84
2023-05-08T17:05:53.321Z,14.74
2023-05-08T17:08:21.136Z,14.77
2023-05-08T17:10:48.902Z,14.87
2023-05-08T17:13:16.591Z,14.99
2023-05-08T17:15:44.382Z,15.13
2023-05-08T17:18:12.060Z,15.15
2023-05-08T17:20:40.765Z,15.23
2023-05-08T17:23:09.308Z,15.14
2023-05-08T17:25:37.082Z,15.20
2023-05-08T17:28:04.871Z,14.98
2023-05-08T17:30:32.630Z,15.03
2023-05-08T17:33:00.569Z,15.16
2023-05-08T17:35:28.394Z,15.18
2023-05-08T17:37:56.073Z,15.20
2023-05-08T17:40:25.782Z,15.30
2023-05-08T17:42:53.525Z,15.27
2023-05-08T17:45:21.260Z,15.34
2023-05-08T17:47:48.995Z,15.22
2023-05-08T17:50:16.748Z,15.14
2023-05-08T17:52:44.488Z,15.29
2023-05-08T17:55:12.244Z,15.26
2023-05-08T17:57:39.906Z,15.28
2023-05-08T18:00:08.297Z,14.89
2023-05-08T18:02:40.444Z,15.04
2023-05-08T18:05:08.784Z,15.10
2023-05-08T18:07:36.517Z,15.18
2023-05-08T18:10:04.694Z,15.07
2023-05-08T18:12:32.649Z,14.66
2023-05-08T18:15:02.185Z,14.91
2023-05-08T18:17:30.122Z,15.09
2023-05-08T18:19:57.934Z,14.91
2023-05-08T18:22:26.255Z,14.85
2023-05-08T18:24:56.995Z,14.75
2023-05-08T18:27:26.140Z,14.84
2023-05-08T18:29:53.901Z,14.84
2023-05-08T18:32:21.741Z,14.77
2023-05-08T18:34:49.440Z,14.83
2023-05-08T18:37:17.129Z,14.96
2023-05-08T18:39:44.795Z,15.04
2023-05-08T18:42:12.589Z,15.03
2023-05-08T18:44:40.275Z,14.99
2023-05-08T18:47:08.114Z,14.88
2023-05-08T18:49:35.963Z,14.95
2023-05-08T18:52:03.852Z,14.72
2023-05-08T18:54:31.578Z,14.52
2023-05-08T18:56:59.338Z,14.47
2023-05-08T18:59:27.006Z,14.39
2023-05-08T19:01:54.842Z,14.48
2023-05-08T19:04:22.559Z,14.67
2023-05-08T19:06:50.306Z,14.73
2023-05-08T19:09:18.068Z,14.67
2023-05-08T19:11:45.850Z,14.73
2023-05-08T19:14:13.567Z,14.68
2023-05-08T19:16:41.306Z,14.60
2023-05-08T19:19:09.015Z,14.46
2023-05-08T19:21:36.772Z,14.48
2023-05-08T19:24:04.704Z,14.56
2023-05-08T19:26:32.429Z,14.67
2023-05-08T19:29:00.117Z,14.61
2023-05-08T19:31:27.941Z,14.67
2023-05-08T19:33:57.304Z,14.77
2023-05-08T19:36:25.153Z,14.78
2023-05-08T19:38:52.841Z,14.84
2023-05-08T19:41:20.694Z,14.71
2023-05-08T19:43:48.496Z,14.54
2023-05-08T19:46:16.352Z,14.36
2023-05-08T19:48:44.112Z,14.34
2023-05-08T19:51:12.530Z,14.32
2023-05-08T19:53:40.288Z,14.34
2023-05-08T19:56:08.100Z,14.14
2023-05-08T19:58:35.783Z,14.34
2023-05-08T20:01:03.588Z,14.02
2023-05-08T20:03:31.448Z,14.02
2023-05-08T20:05:59.236Z,13.97
2023-05-08T20:08:27.008Z,13.94
2023-05-08T20:10:54.737Z,13.93
2023-05-08T20:13:22.501Z,13.73
2023-05-08T20:15:50.493Z,13.89
2023-05-08T20:18:18.203Z,13.75
2023-05-08T20:20:46.184Z,13.62
2023-05-08T20:23:13.894Z,13.51
2023-05-08T20:25:41.764Z,13.84
2023-05-08T20:28:09.465Z,13.63
2023-05-08T20:30:37.203Z,13.00
2023-05-08T20:33:05.426Z,13.62
2023-05-08T20:35:33.345Z,12.76
2023-05-08T20:38:01.184Z,13.27
2023-05-08T20:40:28.884Z,12.99
2023-05-08T20:42:56.603Z,13.08
2023-05-08T20:45:24.752Z,13.09
2023-05-08T20:47:52.495Z,12.98
2023-05-08T20:50:20.270Z,13.07
2023-05-08T20:52:48.053Z,13.09
2023-05-08T20:55:15.997Z,13.27
2023-05-08T20:57:44.089Z,13.42
2023-05-08T21:00:12.390Z,13.19
2023-05-08T21:02:42.101Z,12.68
2023-05-08T21:05:10.117Z,12.15
2023-05-08T21:07:37.993Z,11.94
2023-05-08T21:10:06.073Z,12.10
2023-05-08T21:12:33.889Z,12.36
2023-05-08T21:15:01.609Z,12.38
2023-05-08T21:17:29.406Z,12.57
2023-05-08T21:19:57.141Z,12.70
2023-05-08T21:22:24.919Z,12.89
2023-05-08T21:24:52.572Z,12.71
2023-05-08T21:27:20.372Z,12.86
2023-05-08T21:29:48.044Z,13.00
2023-05-08T21:32:15.833Z,12.64
2023-05-08T21:34:43.530Z,12.63
2023-05-08T21:37:11.360Z,12.62
2023-05-08T21:39:39.039Z,12.53
2023-05-08T21:42:06.822Z,12.53
2023-05-08T21:44:34.463Z,12.97
2023-05-08T21:47:02.348Z,13.07
2023-05-08T21:49:30.002Z,12.99
2023-05-08T21:51:57.984Z,12.91
2023-05-08T21:54:25.690Z,13.04
2023-05-08T21:56:53.435Z,13.01
2023-05-08T21:59:21.145Z,13.30
2023-05-08T22:01:48.915Z,13.41
2023-05-08T22:04:16.606Z,13.37
2023-05-08T22:06:44.606Z,13.36
2023-05-08T22:09:12.241Z,13.27
2023-05-08T22:11:39.998Z,13.29
2023-05-08T22:14:07.670Z,13.19
2023-05-08T22:16:35.523Z,13.35
2023-05-08T22:19:03.277Z,13.01
2023-05-08T22:21:32.060Z,13.36
2023-05-08T22:23:59.726Z,13.27
2023-05-08T22:26:28.829Z,13.29
2023-05-08T22:28:56.606Z,13.32
2023-05-08T22:31:24.311Z,13.37
2023-05-08T22:33:52.129Z,13.32
2023-05-08T22:36:19.887Z,13.29
2023-05-08T22:38:47.664Z,13.15
2023-05-08T22:41:15.379Z,13.28
2023-05-08T22:43:43.193Z,12.91
2023-05-08T22:46:11.479Z,13.19
2023-05-08T22:48:39.433Z,12.60
2023-05-08T22:51:07.477Z,12.66
2023-05-08T22:53:35.181Z,12.69
2023-05-08T22:56:02.899Z,12.16
2023-05-08T22:58:30.696Z,11.93
2023-05-08T23:00:59.777Z,12.00
2023-05-08T23:03:27.676Z,12.37
2023-05-08T23:05:55.406Z,12.25
2023-05-08T23:08:23.144Z,12.14
2023-05-08T23:10:50.854Z,12.46
2023-05-08T23:13:18.614Z,12.35
2023-05-08T23:15:46.328Z,12.48
2023-05-08T23:18:14.118Z,12.59
2023-05-08T23:20:41.815Z,12.80
2023-05-08T23:23:09.573Z,12.77
2023-05-08T23:25:37.269Z,12.92
2023-05-08T23:28:04.999Z,12.84
2023-05-08T23:30:32.660Z,12.65
2023-05-08T23:33:00.661Z,12.82
2023-05-08T23:35:28.490Z,12.93
2023-05-08T23:37:56.563Z,12.80
2023-05-08T23:40:24.236Z,12.78
2023-05-08T23:42:52.217Z,12.76
2023-05-08T23:45:19.896Z,12.78
2023-05-08T23:47:47.697Z,12.95
2023-05-08T23:50:15.482Z,12.79
2023-05-08T23:52:43.223Z,13.00
2023-05-08T23:55:11.107Z,13.11
2023-05-08T23:57:38.951Z,13.10
